| time (UTC) | temp F | wind direction | speed knots | gust knots | rain 1hr in | rain 24hr in | rain mn in | humidity % | barometer mb |
| 20260507184009 | 72 | 270 | 0.9 | 8.7 | 0.00 | 0.00 | 0.00 | 60 | 1021.7 |
| 20260507183009 | 73 | 0 | 0.9 | 7.8 | 0.00 | 0.00 | 0.00 | 60 | 1021.8 |
| 20260507182010 | 74 | 0 | 0.9 | 6.1 | 0.00 | 0.00 | 0.00 | 60 | 1021.7 |
| 20260507181009 | 73 | 6 | 2.6 | 7.0 | 0.00 | 0.00 | 0.00 | 59 | 1021.7 |
| 20260507174010 | 71 | 345 | 1.7 | 6.1 | 0.00 | 0.00 | 0.00 | 62 | 1021.6 |
| 20260507173010 | 71 | 0 | 0.9 | 6.1 | 0.00 | 0.00 | 0.00 | 64 | 1021.6 |
| 20260507171009 | 70 | 341 | 0.9 | 5.2 | 0.00 | 0.00 | 0.00 | 65 | 1021.7 |
| 20260507170009 | 69 | 349 | 0.0 | 6.1 | 0.00 | 0.00 | 0.00 | 67 | 1021.7 |
| 20260507165009 | 68 | 356 | 3.5 | 7.8 | 0.00 | 0.00 | 0.00 | 69 | 1021.7 |
| 20260507164009 | 67 | 0 | 2.6 | 7.8 | 0.00 | 0.00 | 0.00 | 68 | 1021.7 |
| 20260507163009 | 68 | 358 | 4.3 | 7.8 | 0.00 | 0.00 | 0.00 | 66 | 1021.7 |
| 20260507162009 | 67 | 352 | 1.7 | 5.2 | 0.00 | 0.00 | 0.00 | 64 | 1021.7 |
| 20260507161009 | 67 | 157 | 0.0 | 0.0 | 0.00 | 0.00 | 0.00 | 67 | 1021.6 |
| 20260507160009 | 66 | 157 | 0.0 | 5.2 | 0.00 | 0.00 | 0.00 | 68 | 1021.7 |
| 20260507153009 | 64 | 89 | 0.0 | 0.0 | 0.00 | 0.00 | 0.00 | 82 | 1021.7 |
| 20260507152009 | 61 | 89 | 0.0 | 4.3 | 0.00 | 0.00 | 0.00 | 92 | 1021.6 |
| 20260507151009 | 59 | 99 | 0.0 | 5.2 | 0.00 | 0.00 | 0.00 | 100 | 1021.6 |
| 20260507150009 | 56 | 95 | 0.9 | 5.2 | 0.00 | 0.00 | 0.00 | 100 | 1021.7 |
| 20260507145010 | 55 | 101 | 0.9 | 4.3 | 0.00 | 0.00 | 0.00 | 100 | 1021.7 |
| 20260507144011 | 55 | 119 | 0.9 | 5.2 | 0.00 | 0.00 | 0.00 | 100 | 1021.6 |
| 20260507143010 | 54 | 121 | 0.0 | 0.0 | 0.00 | 0.00 | 0.00 | 100 | 1021.6 |
| 20260507141010 | 52 | 121 | 0.0 | 0.0 | 0.00 | 0.00 | 0.00 | 100 | 1021.4 |
| 20260507140009 | 52 | 121 | 0.0 | 0.0 | 0.00 | 0.00 | 0.00 | 100 | 1021.3 |
| 20260507135010 | 52 | 121 | 0.0 | 0.0 | 0.00 | 0.00 | 0.00 | 100 | 1021.2 |
| 20260507134010 | 52 | 121 | 0.0 | 0.0 | 0.00 | 0.00 | 0.00 | 100 | 1021.1 |
| 20260507133010 | 52 | 121 | 0.0 | 0.0 | 0.00 | 0.00 | 0.00 | 100 | 1021.0 |
| 20260507132010 | 51 | 121 | 0.0 | 0.0 | 0.00 | 0.00 | 0.00 | 100 | 1021.0 |
| 20260507131010 | 51 | 121 | 0.0 | 0.0 | 0.00 | 0.00 | 0.00 | 100 | 1021.0 |
| 20260507130010 | 52 | 121 | 0.0 | 0.0 | 0.00 | 0.00 | 0.00 | 100 | 1020.8 |
| 20260507125011 | 52 | 121 | 0.0 | 0.0 | 0.00 | 0.00 | 0.00 | 100 | 1020.8 |
| 20260507124013 | 52 | 121 | 0.0 | 0.0 | 0.00 | 0.00 | 0.00 | 100 | 1020.7 |
| 20260507123010 | 52 | 121 | 0.0 | 0.0 | 0.00 | 0.00 | 0.00 | 100 | 1020.8 |
| 20260507122009 | 52 | 121 | 0.0 | 0.0 | 0.00 | 0.00 | 0.00 | 100 | 1020.7 |
| 20260507121009 | 52 | 121 | 0.0 | 0.0 | 0.00 | 0.00 | 0.00 | 100 | 1020.8 |
| 20260507120009 | 52 | 121 | 0.0 | 2.6 | 0.00 | 0.00 | 0.00 | 100 | 1020.8 |
| 20260507114010 | 52 | 65 | 0.0 | 0.0 | 0.00 | 0.00 | 0.00 | 100 | 1020.8 |
| 20260507113010 | 52 | 65 | 0.0 | 0.0 | 0.00 | 0.00 | 0.00 | 100 | 1021.0 |
| 20260507112010 | 52 | 65 | 0.0 | 0.0 | 0.00 | 0.00 | 0.00 | 100 | 1021.0 |
| 20260507111010 | 52 | 65 | 0.0 | 0.0 | 0.00 | 0.00 | 0.00 | 100 | 1021.0 |
| 20260507110009 | 52 | 65 | 0.0 | 0.0 | 0.00 | 0.00 | 0.00 | 100 | 1021.0 |
| 20260507105010 | 52 | 65 | 0.0 | 0.0 | 0.00 | 0.00 | 0.00 | 100 | 1021.0 |
| 20260507104010 | 52 | 65 | 0.0 | 0.0 | 0.00 | 0.00 | 0.00 | 100 | 1021.0 |
| 20260507103010 | 52 | 65 | 0.0 | 0.0 | 0.00 | 0.00 | 0.00 | 100 | 1021.0 |
| 20260507101010 | 52 | 65 | 0.0 | 0.0 | 0.00 | 0.00 | 0.00 | 100 | 1021.1 |
| 20260507100010 | 52 | 65 | 0.0 | 0.0 | 0.00 | 0.00 | 0.00 | 100 | 1021.0 |
| 20260507095009 | 52 | 65 | 0.0 | 0.0 | 0.00 | 0.00 | 0.00 | 100 | 1021.1 |
| 20260507094010 | 52 | 65 | 0.0 | 1.7 | 0.00 | 0.00 | 0.00 | 100 | 1021.2 |
| 20260507093010 | 52 | 131 | 0.0 | 0.0 | 0.00 | 0.00 | 0.00 | 100 | 1021.2 |
| 20260507092010 | 52 | 131 | 0.0 | 0.0 | 0.00 | 0.00 | 0.00 | 100 | 1021.4 |
| 20260507091009 | 52 | 131 | 0.0 | 0.0 | 0.00 | 0.00 | 0.00 | 100 | 1021.4 |
| 20260507090009 | 52 | 131 | 0.0 | 0.0 | 0.00 | 0.00 | 0.00 | 100 | 1021.4 |
| 20260507085009 | 52 | 131 | 0.0 | 0.0 | 0.00 | 0.00 | 0.00 | 100 | 1021.4 |
| 20260507084009 | 52 | 131 | 0.0 | 0.0 | 0.00 | 0.00 | 0.00 | 100 | 1021.5 |
| 20260507081009 | 53 | 131 | 0.0 | 0.0 | 0.00 | 0.00 | 0.00 | 100 | 1021.5 |
| 20260507080010 | 53 | 131 | 0.0 | 0.0 | 0.00 | 0.00 | 0.00 | 100 | 1021.6 |
| 20260507075009 | 53 | 131 | 0.0 | 0.0 | 0.00 | 0.00 | 0.00 | 100 | 1021.6 |
| 20260507074010 | 53 | 131 | 0.0 | 0.0 | 0.00 | 0.00 | 0.00 | 100 | 1021.6 |
| 20260507073010 | 53 | 131 | 0.0 | 0.0 | 0.00 | 0.00 | 0.00 | 100 | 1021.6 |
| 20260507071010 | 53 | 17 | 0.0 | 0.0 | 0.00 | 0.00 | 0.00 | 100 | 1021.7 |
| 20260507070012 | 53 | 17 | 0.0 | 0.0 | 0.00 | 0.00 | 0.00 | 100 | 1021.7 |
| 20260507065010 | 53 | 17 | 0.0 | 0.0 | 0.00 | 0.00 | 0.00 | 100 | 1021.8 |
| 20260507064010 | 53 | 17 | 0.0 | 0.0 | 0.00 | 0.00 | 0.00 | 100 | 1021.8 |
| 20260507063009 | 53 | 17 | 0.0 | 0.0 | 0.00 | 0.00 | 0.00 | 100 | 1021.8 |
| 20260507062009 | 54 | 17 | 0.0 | 1.7 | 0.00 | 0.00 | 0.00 | 100 | 1021.8 |
| 20260507060009 | 54 | 17 | 0.0 | 0.0 | 0.00 | 0.00 | 0.00 | 100 | 1021.9 |
| 20260507055009 | 55 | 17 | 0.0 | 0.0 | 0.00 | 0.00 | 0.00 | 99 | 1021.8 |
| 20260507054009 | 55 | 17 | 0.0 | 0.0 | 0.00 | 0.00 | 0.00 | 98 | 1021.8 |
| 20260507052009 | 55 | 17 | 0.0 | 0.0 | 0.00 | 0.00 | 0.00 | 96 | 1021.9 |
| 20260507051009 | 56 | 17 | 0.0 | 0.0 | 0.00 | 0.00 | 0.00 | 95 | 1022.1 |
| 20260507050010 | 56 | 17 | 0.0 | 0.0 | 0.00 | 0.00 | 0.00 | 94 | 1022.1 |
| 20260507044009 | 57 | 17 | 0.0 | 0.0 | 0.00 | 0.00 | 0.00 | 92 | 1022.1 |
| 20260507043010 | 57 | 17 | 0.0 | 0.0 | 0.00 | 0.00 | 0.00 | 91 | 1021.9 |
| 20260507042010 | 58 | 17 | 0.0 | 0.0 | 0.00 | 0.00 | 0.00 | 90 | 1021.9 |
| 20260507041009 | 58 | 17 | 0.0 | 0.0 | 0.00 | 0.00 | 0.00 | 89 | 1021.8 |
| 20260507040009 | 58 | 17 | 0.0 | 0.0 | 0.00 | 0.00 | 0.00 | 88 | 1021.7 |
| 20260507035009 | 59 | 17 | 0.0 | 0.0 | 0.00 | 0.00 | 0.00 | 86 | 1021.6 |
| 20260507033011 | 60 | 17 | 0.0 | 0.0 | 0.00 | 0.00 | 0.00 | 83 | 1021.5 |
| 20260507031010 | 62 | 17 | 0.0 | 0.0 | 0.00 | 0.00 | 0.00 | 77 | 1021.4 |
| 20260507025009 | 64 | 17 | 0.0 | 0.0 | 0.00 | 0.00 | 0.00 | 74 | 1021.3 |
| 20260507024010 | 64 | 17 | 0.0 | 0.0 | 0.00 | 0.00 | 0.00 | 72 | 1021.1 |
| 20260507022010 | 66 | 17 | 0.0 | 0.0 | 0.00 | 0.00 | 0.00 | 69 | 1021.0 |
| 20260507021010 | 66 | 10 | 0.9 | 6.1 | 0.00 | 0.00 | 0.00 | 67 | 1021.0 |
| 20260507020009 | 66 | 257 | 0.0 | 0.0 | 0.00 | 0.00 | 0.00 | 65 | 1021.0 |
| 20260507015010 | 67 | 257 | 0.0 | 4.3 | 0.00 | 0.00 | 0.00 | 64 | 1021.0 |
| 20260507014009 | 67 | 352 | 0.0 | 5.2 | 0.00 | 0.00 | 0.00 | 62 | 1021.1 |
| 20260507013010 | 68 | 12 | 0.9 | 4.3 | 0.00 | 0.00 | 0.00 | 61 | 1021.1 |
| 20260507012010 | 68 | 326 | 1.7 | 7.0 | 0.00 | 0.00 | 0.00 | 61 | 1021.0 |
| 20260507011009 | 68 | 340 | 2.6 | 6.1 | 0.00 | 0.00 | 0.00 | 60 | 1021.1 |
| 20260507010010 | 68 | 346 | 0.0 | 0.0 | 0.00 | 0.00 | 0.00 | 60 | 1021.0 |
| 20260507005010 | 68 | 349 | 1.7 | 8.7 | 0.00 | 0.00 | 0.00 | 59 | 1020.8 |
| 20260507003010 | 69 | 339 | 0.0 | 0.0 | 0.00 | 0.00 | 0.00 | 57 | 1020.7 |
| 20260507002010 | 70 | 339 | 0.9 | 6.1 | 0.00 | 0.00 | 0.00 | 56 | 1020.8 |
| 20260507001010 | 70 | 345 | 0.0 | 7.0 | 0.00 | 0.00 | 0.00 | 56 | 1020.8 |
| 20260507000009 | 71 | 282 | 3.5 | 7.8 | 0.00 | 0.00 | 0.00 | 54 | 1020.7 |
| 20260506235010 | 70 | 252 | 0.9 | 5.2 | 0.00 | 0.00 | 0.00 | 56 | 1020.8 |
| 20260506233009 | 72 | 323 | 2.6 | 7.0 | 0.00 | 0.00 | 0.00 | 52 | 1020.8 |
| 20260506232010 | 71 | 336 | 0.9 | 5.2 | 0.00 | 0.00 | 0.00 | 55 | 1020.8 |
| 20260506231010 | 71 | 13 | 1.7 | 7.0 | 0.00 | 0.00 | 0.00 | 53 | 1021.0 |
| 20260506230009 | 71 | 1 | 1.7 | 7.8 | 0.00 | 0.00 | 0.00 | 54 | 1021.2 |
| 20260506225009 | 70 | 112 | 1.7 | 6.1 | 0.00 | 0.00 | 0.00 | 54 | 1021.2 |
| 20260506224010 | 70 | 330 | 3.5 | 7.8 | 0.00 | 0.00 | 0.00 | 55 | 1021.3 |
| 20260506223010 | 71 | 0 | 6.1 | 8.7 | 0.00 | 0.00 | 0.00 | 52 | 1021.3 |
| 20260506222010 | 70 | 0 | 0.0 | 6.1 | 0.00 | 0.00 | 0.00 | 55 | 1021.4 |
| 20260506221010 | 69 | 345 | 4.3 | 7.8 | 0.00 | 0.00 | 0.00 | 55 | 1021.5 |
| 20260506220009 | 70 | 300 | 2.6 | 6.1 | 0.00 | 0.00 | 0.00 | 55 | 1021.5 |
| 20260506215010 | 70 | 280 | 0.0 | 7.8 | 0.00 | 0.00 | 0.00 | 56 | 1021.6 |
| 20260506214009 | 70 | 280 | 0.9 | 5.2 | 0.00 | 0.00 | 0.00 | 54 | 1021.8 |
| 20260506213010 | 70 | 268 | 1.7 | 7.0 | 0.00 | 0.00 | 0.00 | 53 | 1021.9 |
| 20260506212009 | 69 | 283 | 0.9 | 7.0 | 0.00 | 0.00 | 0.00 | 56 | 1021.9 |
| 20260506211010 | 68 | 41 | 0.0 | 8.7 | 0.00 | 0.00 | 0.00 | 59 | 1021.9 |
| 20260506205009 | 68 | 357 | 2.6 | 7.8 | 0.00 | 0.00 | 0.00 | 59 | 1022.1 |
| 20260506204010 | 68 | 334 | 5.2 | 7.8 | 0.00 | 0.00 | 0.00 | 58 | 1022.1 |
| 20260506203009 | 67 | 322 | 2.6 | 7.8 | 0.00 | 0.00 | 0.00 | 59 | 1022.1 |
| 20260506202009 | 67 | 315 | 2.6 | 10.4 | 0.00 | 0.00 | 0.00 | 61 | 1022.1 |
| 20260506200010 | 66 | 224 | 0.0 | 8.7 | 0.00 | 0.00 | 0.00 | 61 | 1022.3 |
| 20260506195010 | 66 | 302 | 1.7 | 7.0 | 0.00 | 0.00 | 0.00 | 61 | 1022.3 |
| 20260506194009 | 67 | 342 | 0.9 | 8.7 | 0.00 | 0.00 | 0.00 | 60 | 1022.3 |
| 20260506193009 | 67 | 136 | 1.7 | 6.1 | 0.00 | 0.00 | 0.00 | 60 | 1022.4 |
| 20260506192013 | 67 | 309 | 0.0 | 6.1 | 0.00 | 0.00 | 0.00 | 60 | 1022.5 |
| 20260506191009 | 66 | 314 | 2.6 | 7.0 | 0.00 | 0.00 | 0.00 | 61 | 1022.5 |
| 20260506190010 | 65 | 175 | 2.6 | 7.0 | 0.00 | 0.00 | 0.00 | 65 | 1022.6 |
| 20260506185009 | 65 | 322 | 4.3 | 7.0 | 0.00 | 0.00 | 0.00 | 64 | 1022.5 |